Time;durP1;ratioP1;P1;durP2;ratioP2;P2;SDS_P1;SDS_P2;PMS_P1;PMS_P2;Temp;Humidity;BMP_temperature;BMP_pressure;BME280_temperature;BME280_humidity;BME280_pressure;Samples;Min_cycle;Max_cycle;Signal;HPM_P1;HPM_P2
2021/03/19 00:01:56;;;;;;;11.63;4.97;;;;;;;1.14;100.00;99284.02;1772344;80;20958;-73
2021/03/19 00:04:24;;;;;;;12.33;4.80;;;;;;;1.15;100.00;99279.03;1762972;81;21011;-73
2021/03/19 00:06:52;;;;;;;17.17;6.37;;;;;;;1.13;100.00;99279.19;1774370;80;20986;-73
2021/03/19 00:09:20;;;;;;;14.50;6.40;;;;;;;1.13;100.00;99273.00;1762939;81;21141;-72
2021/03/19 00:11:48;;;;;;;8.10;4.60;;;;;;;1.10;100.00;99270.63;1762769;81;21144;-74
2021/03/19 00:14:21;;;;;;;10.47;4.20;;;;;;;1.11;100.00;99270.47;1774178;80;21001;-73
2021/03/19 00:16:50;;;;;;;11.80;4.47;;;;;;;1.10;100.00;99273.28;1762948;81;21546;-73
2021/03/19 00:19:19;;;;;;;4.70;3.37;;;;;;;1.09;100.00;99272.91;1794205;80;21590;-72
2021/03/19 00:21:47;;;;;;;12.23;5.30;;;;;;;1.08;100.00;99274.74;1763006;81;21004;-73
2021/03/19 00:24:15;;;;;;;7.87;4.07;;;;;;;1.09;100.00;99273.75;1764670;81;21848;-73
2021/03/19 00:26:43;;;;;;;14.73;4.70;;;;;;;1.09;100.00;99273.75;1792557;79;20977;-71
2021/03/19 00:29:11;;;;;;;11.43;4.50;;;;;;;1.09;100.00;99276.91;1793560;80;21020;-71
2021/03/19 00:31:38;;;;;;;7.57;4.53;;;;;;;1.08;100.00;99269.41;1790104;80;21025;-73
2021/03/19 00:34:06;;;;;;;15.50;4.87;;;;;;;1.08;100.00;99266.75;1789683;80;21005;-74
2021/03/19 00:36:35;;;;;;;15.37;5.97;;;;;;;1.09;100.00;99272.91;1789782;79;22243;-72
2021/03/19 00:39:03;;;;;;;28.30;6.47;;;;;;;1.08;100.00;99272.08;1789677;80;21020;-73
2021/03/19 00:41:31;;;;;;;18.13;5.83;;;;;;;1.07;100.00;99270.88;1789701;80;21005;-73
2021/03/19 00:43:59;;;;;;;8.17;4.37;;;;;;;1.05;100.00;99269.66;1766723;80;20914;-73
2021/03/19 00:46:26;;;;;;;5.60;4.10;;;;;;;1.05;100.00;99271.00;1758554;81;20905;-73
2021/03/19 00:48:54;;;;;;;8.73;5.00;;;;;;;1.05;100.00;99271.00;1758454;79;21790;-73
2021/03/19 00:51:23;;;;;;;6.27;3.87;;;;;;;1.07;100.00;99273.53;1758282;81;21013;-72
2021/03/19 00:53:51;;;;;;;20.10;7.90;;;;;;;1.07;100.00;99276.20;1758568;81;21033;-73
2021/03/19 00:56:18;;;;;;;14.23;5.50;;;;;;;1.08;100.00;99266.75;1758541;81;20925;-73
2021/03/19 00:58:46;;;;;;;13.47;5.00;;;;;;;1.07;100.00;99272.20;1758617;81;21025;-73
2021/03/19 01:01:14;;;;;;;9.90;4.97;;;;;;;1.05;100.00;99271.00;1758759;80;22245;-72
2021/03/19 01:03:42;;;;;;;17.30;6.00;;;;;;;1.05;100.00;99276.32;1761311;80;21031;-73
2021/03/19 01:06:10;;;;;;;11.63;4.93;;;;;;;1.03;100.00;99272.95;1748151;82;21705;-73
2021/03/19 01:08:39;;;;;;;9.87;5.10;;;;;;;1.04;100.00;99269.79;1748097;82;21077;-73
2021/03/19 01:11:07;;;;;;;16.83;6.93;;;;;;;1.03;100.00;99270.78;1748221;82;20891;-73
2021/03/19 01:13:36;;;;;;;24.83;7.20;;;;;;;0.99;100.00;99268.00;1775322;80;20942;-72
2021/03/19 01:16:05;;;;;;;14.30;5.10;;;;;;;0.98;100.00;99272.98;1761795;81;20996;-74
2021/03/19 01:18:33;;;;;;;13.17;4.83;;;;;;;0.98;100.00;99272.98;1775353;80;21005;-74
2021/03/19 01:21:05;;;;;;;15.93;7.37;;;;;;;0.95;100.00;99274.91;1758213;81;21052;-72
2021/03/19 01:23:34;;;;;;;16.27;5.77;;;;;;;0.94;100.00;99275.89;1748141;81;21008;-72
2021/03/19 01:26:01;;;;;;;24.97;5.63;;;;;;;0.94;100.00;99271.90;1748155;82;21901;-73
2021/03/19 01:28:31;;;;;;;9.30;5.37;;;;;;;0.97;100.00;99272.11;1775318;80;20994;-73
2021/03/19 01:30:59;;;;;;;20.13;6.33;;;;;;;0.96;100.00;99279.77;1761601;81;21594;-73
2021/03/19 01:33:27;;;;;;;15.73;6.23;;;;;;;0.94;100.00;99279.89;1748164;82;20945;-73
2021/03/19 01:35:55;;;;;;;12.73;5.53;;;;;;;0.95;100.00;99283.38;1758870;80;20966;-73
2021/03/19 01:38:22;;;;;;;12.23;5.50;;;;;;;0.95;100.00;99290.88;1759866;81;22122;-73
2021/03/19 01:40:50;;;;;;;12.20;5.77;;;;;;;0.97;100.00;99293.91;1761806;81;21231;-73
2021/03/19 01:43:51;;;;;;;15.53;6.40;;;;;;;0.98;100.00;99294.28;1794909;79;20991;-73
2021/03/19 01:47:14;;;;;;;11.00;6.10;;;;;;;0.97;100.00;99292.08;1793257;80;20928;-73
2021/03/19 01:50:38;;;;;;;13.25;4.45;;;;;;;0.95;100.00;99292.20;1734284;80;21015;-71
2021/03/19 01:54:02;;;;;;;9.73;5.45;;;;;;;0.97;100.00;99289.91;1762066;81;21369;-73
2021/03/19 01:57:26;;;;;;;15.65;6.95;;;;;;;0.98;100.00;99295.11;1762010;81;20959;-72
2021/03/19 02:00:51;;;;;;;14.13;5.87;;;;;;;0.95;100.00;99304.19;1761905;81;20963;-73
2021/03/19 02:03:56;;;;;;;;;;;;;;;0.95;100.00;99298.02;1764465;81;21014;-73
2021/03/19 02:07:20;;;;;;;21.20;7.70;;;;;;;0.96;100.00;99306.38;1762083;81;20121;-73
2021/03/19 02:10:25;;;;;;;;;;;;;;;0.94;100.00;99307.00;1764759;81;22267;-72
2021/03/19 02:13:51;;;;;;;7.93;4.50;;;;;;;0.94;100.00;99311.83;1762025;81;20145;-73
2021/03/19 02:17:15;;;;;;;6.72;4.37;;;;;;;0.93;100.00;99314.61;1762171;81;21006;-73
2021/03/19 02:20:39;;;;;;;10.53;5.33;;;;;;;0.93;100.00;99314.61;1762063;81;21539;-73
2021/03/19 02:24:03;;;;;;;10.53;4.90;;;;;;;0.93;100.00;99303.97;1762079;81;20987;-73
2021/03/19 02:27:29;;;;;;;22.37;8.40;;;;;;;0.95;100.00;99312.66;1762019;81;21337;-72
2021/03/19 02:30:55;;;;;;;20.23;6.90;;;;;;;0.95;100.00;99316.16;1761866;81;20958;-73
2021/03/19 02:33:22;;;;;;;15.10;6.23;;;;;;;0.93;100.00;99318.11;1703216;83;21042;-72
2021/03/19 02:35:57;;;;;;;8.53;4.20;;;;;;;0.89;100.00;99315.85;1732450;82;21044;-72
2021/03/19 02:38:26;;;;;;;10.17;5.10;;;;;;;0.87;100.00;99319.13;1732527;82;21037;-73
2021/03/19 02:40:55;;;;;;;13.33;5.40;;;;;;;0.89;100.00;99319.84;1732565;82;22113;-72
2021/03/19 02:43:23;;;;;;;20.30;6.90;;;;;;;0.90;100.00;99317.52;1732376;82;20977;-73
2021/03/19 02:45:51;;;;;;;17.90;6.87;;;;;;;0.90;100.00;99317.52;1732372;82;21070;-72
2021/03/19 02:48:19;;;;;;;19.87;6.93;;;;;;;0.91;100.00;99323.22;1732483;82;21064;-72
2021/03/19 02:50:48;;;;;;;14.17;6.73;;;;;;;0.90;100.00;99318.86;1732655;82;20937;-72
2021/03/19 02:53:27;;;;;;;13.83;6.20;;;;;;;0.89;100.00;99330.49;1732722;82;21831;-72
2021/03/19 02:55:57;;;;;;;14.27;6.37;;;;;;;0.89;100.00;99334.48;1732549;82;21155;-73
2021/03/19 02:58:25;;;;;;;17.77;6.63;;;;;;;0.88;100.00;99335.44;1732770;82;21578;-74
2021/03/19 03:00:53;;;;;;;10.73;4.80;;;;;;;0.89;100.00;99340.64;1732615;82;21018;-73
2021/03/19 03:03:21;;;;;;;13.10;5.90;;;;;;;0.88;100.00;99339.44;1732604;82;21064;-73
2021/03/19 03:05:50;;;;;;;22.80;6.70;;;;;;;0.88;100.00;99344.27;1732671;82;21695;-74
2021/03/19 03:08:19;;;;;;;11.10;5.00;;;;;;;0.89;100.00;99356.61;1732571;82;21006;-72
2021/03/19 03:10:52;;;;;;;17.45;7.10;;;;;;;0.90;100.00;99350.80;1732757;81;20981;-72
2021/03/19 03:13:19;;;;;;;18.50;7.00;;;;;;;0.91;100.00;99359.16;1732582;82;20973;-73
2021/03/19 03:15:47;;;;;;;20.90;6.50;;;;;;;0.89;100.00;99352.63;1732685;82;21107;-73
2021/03/19 03:18:15;;;;;;;19.20;7.57;;;;;;;0.89;100.00;99359.77;1732557;82;21460;-72
2021/03/19 03:20:47;;;;;;;22.73;7.00;;;;;;;0.86;100.00;99362.18;1732601;82;21008;-72
2021/03/19 03:23:16;;;;;;;10.90;5.73;;;;;;;0.83;100.00;99362.92;1732610;82;20977;-72
2021/03/19 03:25:44;;;;;;;10.93;5.40;;;;;;;0.80;100.00;99358.70;1732511;82;21029;-72
2021/03/19 03:28:12;;;;;;;15.13;6.83;;;;;;;0.76;100.00;99365.23;1732675;82;21124;-73
2021/03/19 03:30:43;;;;;;;23.40;7.57;;;;;;;0.72;100.00;99375.77;1732633;82;21395;-73
2021/03/19 03:33:12;;;;;;;26.00;8.77;;;;;;;0.71;100.00;99374.09;1733537;82;21058;-73
2021/03/19 03:35:40;;;;;;;17.23;7.20;;;;;;;0.70;100.00;99378.55;1733738;82;21022;-73
2021/03/19 03:38:11;;;;;;;17.60;6.17;;;;;;;0.71;100.00;99378.93;1727886;81;21080;-73
2021/03/19 03:40:44;;;;;;;15.60;6.37;;;;;;;0.71;100.00;99388.24;1727917;83;21001;-72
2021/03/19 03:43:14;;;;;;;24.63;7.78;;;;;;;0.70;100.00;99376.39;1642483;86;21681;-72
2021/03/19 03:45:42;;;;;;;18.93;7.93;;;;;;;0.69;100.00;99383.53;1626708;88;21029;-73
2021/03/19 03:48:13;;;;;;;14.20;6.97;;;;;;;0.69;100.00;99386.20;1626692;86;21730;-72
2021/03/19 03:50:41;;;;;;;14.67;6.63;;;;;;;0.69;100.00;99386.20;1626742;88;21268;-73
2021/03/19 03:53:10;;;;;;;15.53;6.57;;;;;;;0.68;100.00;99393.80;1626659;88;21140;-73
2021/03/19 03:55:39;;;;;;;6.20;4.30;;;;;;;0.65;100.00;99390.55;1627113;87;21640;-74
2021/03/19 03:58:08;;;;;;;13.63;6.37;;;;;;;0.64;100.00;99385.72;1627259;88;21026;-74
2021/03/19 04:00:36;;;;;;;17.07;6.27;;;;;;;0.65;100.00;99391.87;1630084;88;21030;-72
2021/03/19 04:03:05;;;;;;;20.17;7.20;;;;;;;0.67;100.00;99405.41;1629397;88;21042;-74
2021/03/19 04:05:38;;;;;;;21.77;8.07;;;;;;;0.67;100.00;99401.91;1626683;88;21847;-73
2021/03/19 04:08:21;;;;;;;13.43;6.70;;;;;;;0.67;100.00;99399.24;1890122;76;27129;-73
2021/03/19 04:10:49;;;;;;;20.73;6.20;;;;;;;0.61;100.00;99403.74;1860958;77;21519;-73
2021/03/19 04:13:18;;;;;;;15.07;6.67;;;;;;;0.60;100.00;99400.70;1860929;77;21420;-73
2021/03/19 04:15:48;;;;;;;13.73;5.40;;;;;;;0.61;100.00;99398.42;1860911;77;21033;-73
2021/03/19 04:18:17;;;;;;;18.60;6.40;;;;;;;0.60;100.00;99410.86;1861067;77;21560;-73
2021/03/19 04:20:48;;;;;;;19.20;7.53;;;;;;;0.61;100.00;99407.24;1860986;77;20963;-73
2021/03/19 04:23:18;;;;;;;12.73;6.17;;;;;;;0.62;100.00;99408.08;1855814;77;21022;-73
2021/03/19 04:25:47;;;;;;;11.70;5.70;;;;;;;0.61;100.00;99413.89;1860899;76;21192;-73
2021/03/19 04:28:17;;;;;;;11.17;4.63;;;;;;;0.61;100.00;99416.55;1860934;77;21026;-74
2021/03/19 04:30:46;;;;;;;12.13;5.70;;;;;;;0.61;100.00;99413.05;1828789;77;20966;-72
2021/03/19 04:33:23;;;;;;;15.87;6.40;;;;;;;0.63;100.00;99416.44;1860844;77;20990;-74
2021/03/19 04:36:12;;;;;;;13.50;7.47;;;;;;;0.63;100.00;99418.60;1860905;77;20983;-73
2021/03/19 04:38:40;;;;;;;9.43;5.37;;;;;;;0.62;100.00;99427.57;1860900;77;21185;-72
2021/03/19 04:41:09;;;;;;;18.97;6.97;;;;;;;0.62;100.00;99425.38;1860878;77;21009;-73
2021/03/19 04:43:37;;;;;;;9.17;5.07;;;;;;;0.63;100.00;99423.92;1860887;77;21563;-74
2021/03/19 04:46:05;;;;;;;12.13;5.97;;;;;;;0.63;100.00;99421.27;1860873;77;20993;-72
2021/03/19 04:48:34;;;;;;;13.03;6.23;;;;;;;0.64;100.00;99426.09;1845496;76;21550;-73
2021/03/19 04:51:02;;;;;;;19.33;7.87;;;;;;;0.64;100.00;99430.95;1827024;78;21193;-73
2021/03/19 04:53:32;;;;;;;12.50;6.80;;;;;;;0.63;100.00;99429.25;1822431;78;21033;-73
2021/03/19 04:56:00;;;;;;;21.33;8.20;;;;;;;0.64;100.00;99436.27;1827148;78;21012;-74
2021/03/19 04:58:28;;;;;;;12.93;6.90;;;;;;;0.66;100.00;99440.98;1827008;78;20973;-72
2021/03/19 05:00:55;;;;;;;17.83;5.60;;;;;;;0.65;100.00;99434.45;1828837;77;21027;-73
2021/03/19 05:03:23;;;;;;;13.93;6.53;;;;;;;0.64;100.00;99444.26;1860860;77;21560;-73
2021/03/19 05:05:51;;;;;;;20.70;8.37;;;;;;;0.63;100.00;99441.71;1860819;77;20974;-72
2021/03/19 05:08:20;;;;;;;18.17;7.87;;;;;;;0.64;100.00;99445.59;1860902;77;20919;-72
2021/03/19 05:10:48;;;;;;;19.10;7.17;;;;;;;0.61;100.00;99444.48;1860863;77;20998;-74
2021/03/19 05:13:16;;;;;;;15.63;7.23;;;;;;;0.59;100.00;99440.27;1861018;77;21014;-73
2021/03/19 05:15:46;;;;;;;22.07;7.73;;;;;;;0.60;100.00;99445.94;1860732;77;21010;-73
2021/03/19 05:18:14;;;;;;;17.40;5.80;;;;;;;0.61;100.00;99446.31;1860618;77;21172;-73
2021/03/19 05:20:42;;;;;;;19.30;6.57;;;;;;;0.63;100.00;99451.02;1860216;77;20975;-73
2021/03/19 05:23:24;;;;;;;14.07;5.73;;;;;;;0.65;100.00;99453.08;1860258;77;20998;-72
2021/03/19 05:25:52;;;;;;;10.93;6.23;;;;;;;0.66;100.00;99450.30;1820391;78;21110;-73
2021/03/19 05:28:19;;;;;;;11.90;6.33;;;;;;;0.69;100.00;99455.84;1820359;78;21362;-73
2021/03/19 05:30:53;;;;;;;12.53;5.80;;;;;;;0.71;100.00;99452.60;1820578;78;21599;-72
2021/03/19 05:33:17;;;;;;;16.77;7.30;;;;;;;0.73;100.00;99459.98;1816858;78;21579;-73
2021/03/19 05:35:45;;;;;;;16.80;5.60;;;;;;;0.78;100.00;99457.80;1820857;78;21013;-72
2021/03/19 05:38:13;;;;;;;15.23;6.70;;;;;;;0.80;100.00;99458.52;1821029;78;21890;-74
2021/03/19 05:40:44;;;;;;;24.57;7.87;;;;;;;0.80;100.00;99469.16;1820583;78;21611;-73
2021/03/19 05:43:29;;;;;;;43.87;22.87;;;;;;;0.79;100.00;99466.62;1820526;78;21021;-73
2021/03/19 05:46:06;;;;;;;24.13;9.47;;;;;;;0.81;100.00;99472.16;1820621;78;21038;-74
2021/03/19 05:48:45;;;;;;;11.97;6.57;;;;;;;0.85;100.00;99473.63;1837451;77;20997;-73
2021/03/19 05:51:24;;;;;;;25.77;7.30;;;;;;;0.88;100.00;99477.85;1857553;77;20917;-73
2021/03/19 05:54:23;;;;;;;15.40;7.43;;;;;;;0.97;100.00;99482.92;1846291;77;27159;-72
2021/03/19 05:57:09;;;;;;;26.23;12.90;;;;;;;0.95;100.00;99487.03;1821430;78;20970;-74
2021/03/19 05:59:39;;;;;;;23.40;11.27;;;;;;;0.95;100.00;99485.21;1768834;80;21187;-73
2021/03/19 06:02:27;;;;;;;18.03;9.53;;;;;;;0.95;100.00;99491.03;1768731;81;20997;-73
2021/03/19 06:05:15;;;;;;;21.90;11.33;;;;;;;0.97;100.00;99501.06;1769013;81;21659;-74
2021/03/19 06:07:56;;;;;;;23.47;12.50;;;;;;;1.03;100.00;99504.58;1769065;81;21025;-73
2021/03/19 06:10:33;;;;;;;21.90;10.07;;;;;;;1.07;100.00;99510.51;1768942;79;20974;-74
2021/03/19 06:13:22;;;;;;;32.87;16.60;;;;;;;1.08;100.00;99509.05;1769151;81;21287;-74
2021/03/19 06:15:56;;;;;;;37.07;18.60;;;;;;;1.09;100.00;99508.06;1769041;80;21049;-74
2021/03/19 06:18:35;;;;;;;28.03;14.73;;;;;;;1.12;100.00;99507.83;1743563;81;20994;-73
2021/03/19 06:21:09;;;;;;;25.60;11.77;;;;;;;1.14;100.00;99511.20;1763852;81;20998;-73
2021/03/19 06:23:43;;;;;;;25.87;11.00;;;;;;;1.13;100.00;99507.34;1767474;81;21018;-73
2021/03/19 06:26:25;;;;;;;36.17;15.03;;;;;;;1.17;100.00;99513.27;1838416;77;26658;-73
2021/03/19 06:29:12;;;;;;;27.73;13.90;;;;;;;1.17;100.00;99515.46;1751682;81;21096;-74
2021/03/19 06:31:42;;;;;;;30.67;15.07;;;;;;;1.23;100.00;99513.62;1736421;81;21451;-75
2021/03/19 06:34:18;;;;;;;53.63;31.50;;;;;;;1.24;100.00;99517.98;1722803;82;20980;-73
2021/03/19 06:37:00;;;;;;;36.37;19.73;;;;;;;1.23;100.00;99516.28;1761290;81;21021;-74
2021/03/19 06:39:49;;;;;;;;;;;;;;;1.25;100.00;99515.67;1754259;82;21054;-73
2021/03/19 06:42:25;;;;;;;30.40;12.40;;;;;;;1.30;100.00;99510.81;1782646;80;20191;-73
2021/03/19 06:45:18;;;;;;;26.87;9.37;;;;;;;1.32;100.00;99505.37;1764996;81;22106;-73
2021/03/19 06:47:54;;;;;;;18.27;7.23;;;;;;;1.37;100.00;99515.16;1762803;79;21491;-72
2021/03/19 06:50:28;;;;;;;51.37;20.00;;;;;;;1.44;100.00;99517.69;1752062;82;21009;-72
2021/03/19 06:53:24;;;;;;;39.03;16.73;;;;;;;1.57;100.00;99516.19;1752169;81;21538;-74
2021/03/19 06:55:55;;;;;;;19.57;8.67;;;;;;;1.75;100.00;99515.64;1751944;81;21578;-72
2021/03/19 06:58:39;;;;;;;26.03;9.87;;;;;;;1.84;100.00;99528.20;1693355;84;21394;-74
2021/03/19 07:01:31;;;;;;;21.17;9.23;;;;;;;1.82;100.00;99520.82;1693625;84;21046;-72
2021/03/19 07:04:40;;;;;;;22.20;12.33;;;;;;;1.82;100.00;99522.16;1693852;84;21161;-78
2021/03/19 07:07:25;;;;;;;24.30;12.37;;;;;;;1.83;100.00;99535.86;1690260;84;21148;-73
2021/03/19 07:10:26;;;;;;;15.97;7.37;;;;;;;1.91;100.00;99534.70;1693353;84;21136;-74
2021/03/19 07:13:45;;;;;;;18.47;7.57;;;;;;;2.04;100.00;99537.22;1693381;84;21435;-71
2021/03/19 07:16:36;;;;;;;20.83;8.03;;;;;;;2.15;100.00;99539.81;1693388;80;21080;-72
2021/03/19 07:19:20;;;;;;;15.80;7.03;;;;;;;2.24;100.00;99535.53;1717591;83;21033;-72
2021/03/19 07:22:20;;;;;;;17.57;6.67;;;;;;;2.30;100.00;99533.66;1689277;85;20958;-73
2021/03/19 07:25:11;;;;;;;13.67;5.90;;;;;;;2.37;100.00;99537.50;1719588;83;21033;-74
2021/03/19 07:28:03;;;;;;;12.13;5.70;;;;;;;2.43;100.00;99530.81;1689703;85;22348;-73
2021/03/19 07:31:11;;;;;;;14.83;5.30;;;;;;;2.46;100.00;99536.73;1669075;85;21034;-73
2021/03/19 07:34:02;;;;;;;9.20;5.13;;;;;;;2.57;100.00;99540.31;1684237;84;21091;-74
2021/03/19 07:36:54;;;;;;;6.50;3.77;;;;;;;2.62;100.00;99536.26;1688964;85;21048;-73
2021/03/19 07:40:02;;;;;;;12.00;5.10;;;;;;;2.74;100.00;99533.49;1819247;77;26603;-73
2021/03/19 07:43:07;;;;;;;13.67;6.13;;;;;;;2.80;100.00;99543.66;1794497;78;20988;-74
2021/03/19 07:46:02;;;;;;;15.47;6.97;;;;;;;2.89;100.00;99537.51;1791127;78;21910;-76
2021/03/19 07:48:44;;;;;;;22.00;9.67;;;;;;;2.98;100.00;99542.03;1693934;83;20958;-75
2021/03/19 07:51:42;;;;;;;12.97;5.57;;;;;;;3.15;100.00;99537.89;1889528;76;27425;-72
2021/03/19 07:54:30;;;;;;;21.35;7.95;;;;;;;3.22;100.00;99540.38;1857165;77;20923;-75
2021/03/19 07:57:26;;;;;;;14.43;5.53;;;;;;;3.27;100.00;99547.12;1860888;77;21189;-76
2021/03/19 08:00:19;;;;;;;20.33;6.63;;;;;;;3.36;100.00;99551.14;1860369;77;21532;-79
2021/03/19 08:02:51;;;;;;;19.13;7.27;;;;;;;3.45;100.00;99552.15;1791413;78;21083;-76
2021/03/19 08:05:45;;;;;;;19.10;7.20;;;;;;;3.41;100.00;99548.91;1869885;76;27074;-76
2021/03/19 08:08:53;;;;;;;19.10;7.47;;;;;;;3.36;100.00;99554.31;1834761;77;21060;-72
2021/03/19 08:11:38;;;;;;;23.27;6.93;;;;;;;3.37;100.00;99552.84;1827313;78;21802;-73
2021/03/19 08:14:39;;;;;;;21.37;7.43;;;;;;;3.32;100.00;99555.08;1780063;79;21051;-72
2021/03/19 08:17:29;;;;;;;15.30;6.27;;;;;;;3.34;100.00;99562.97;1763427;80;21011;-75
2021/03/19 08:20:18;;;;;;;16.10;5.20;;;;;;;3.40;100.00;99566.45;1785216;79;21553;-76
2021/03/19 08:23:19;;;;;;;9.57;4.97;;;;;;;3.40;100.00;99563.27;1896106;74;26891;-76
2021/03/19 08:25:49;;;;;;;14.93;6.23;;;;;;;3.43;100.00;99572.83;1838869;77;21009;-72
2021/03/19 08:28:41;;;;;;;14.13;5.50;;;;;;;3.50;100.00;99578.48;1862144;76;21453;-74
2021/03/19 08:31:40;;;;;;;13.17;5.33;;;;;;;3.53;100.00;99576.38;1795582;79;21558;-75
2021/03/19 08:34:56;;;;;;;10.33;4.67;;;;;;;3.55;100.00;99585.60;1806756;79;21037;-74
2021/03/19 08:37:52;;;;;;;12.17;4.93;;;;;;;3.63;100.00;99583.56;1807855;79;21072;-74
2021/03/19 08:40:38;;;;;;;17.57;6.03;;;;;;;3.76;100.00;99580.99;1806501;79;20943;-73
2021/03/19 08:43:15;;;;;;;12.73;5.53;;;;;;;3.90;100.00;99582.42;1748865;81;21618;-72
2021/03/19 08:45:43;;;;;;;25.80;8.63;;;;;;;4.01;100.00;99584.12;1790162;80;21009;-73
2021/03/19 08:48:15;;;;;;;23.77;8.30;;;;;;;4.09;100.00;99581.59;1786562;80;21069;-71
2021/03/19 08:50:44;;;;;;;30.60;11.93;;;;;;;4.23;100.00;99582.14;1779003;80;21040;-71
2021/03/19 08:53:23;;;;;;;16.67;6.70;;;;;;;4.34;100.00;99585.52;1787077;80;20914;-72
2021/03/19 08:56:10;;;;;;;22.83;7.53;;;;;;;4.49;100.00;99582.41;1810849;77;26545;-73
2021/03/19 08:58:51;;;;;;;17.57;7.40;;;;;;;4.55;100.00;99582.69;1760408;80;21543;-71
2021/03/19 09:01:49;;;;;;;40.47;11.17;;;;;;;4.65;100.00;99585.33;1765154;79;21694;-73
2021/03/19 09:04:18;;;;;;;17.33;7.07;;;;;;;4.64;100.00;99586.33;1740697;82;20958;-72
2021/03/19 09:07:21;;;;;;;20.40;8.90;;;;;;;4.59;100.00;99585.08;1771026;81;20989;-70
2021/03/19 09:09:50;;;;;;;19.93;7.40;;;;;;;4.59;100.00;99595.29;1716847;82;20957;-76
2021/03/19 09:12:28;;;;;;;18.87;6.17;;;;;;;4.68;100.00;99594.92;1732692;82;21557;-72
2021/03/19 09:15:20;;;;;;;16.60;6.97;;;;;;;4.71;100.00;99588.78;1728797;82;21154;-75
2021/03/19 09:18:06;;;;;;;13.17;5.73;;;;;;;4.71;100.00;99586.58;1710303;82;21024;-75
2021/03/19 09:21:00;;;;;;;11.03;4.93;;;;;;;4.79;100.00;99581.86;1720584;82;21008;-74
2021/03/19 09:23:50;;;;;;;12.82;4.97;;;;;;;4.86;100.00;99583.80;1734564;82;21936;-74
2021/03/19 09:26:33;;;;;;;14.70;5.80;;;;;;;4.95;100.00;99588.78;1637728;86;21635;-73
2021/03/19 09:29:10;;;;;;;15.55;6.05;;;;;;;5.03;100.00;99588.04;1663353;86;21388;-76
2021/03/19 09:31:41;;;;;;;17.30;6.37;;;;;;;5.08;100.00;99595.14;1654382;86;21072;-76
2021/03/19 09:34:16;;;;;;;16.03;7.50;;;;;;;5.08;100.00;99596.48;1642730;84;21558;-75
2021/03/19 09:37:01;;;;;;;19.63;6.60;;;;;;;5.09;100.00;99590.98;1651419;86;21139;-73
2021/03/19 09:39:59;;;;;;;14.30;5.60;;;;;;;5.16;100.00;99593.93;1659528;86;21141;-73
2021/03/19 09:42:35;;;;;;;21.13;8.83;;;;;;;5.25;100.00;99600.24;1654346;86;21216;-76
2021/03/19 09:45:13;;;;;;;19.30;7.57;;;;;;;5.41;100.00;99595.59;1641186;87;21076;-74
2021/03/19 09:47:44;;;;;;;24.17;9.13;;;;;;;5.51;100.00;99594.54;1652231;84;21181;-73
2021/03/19 09:50:31;;;;;;;22.27;8.95;;;;;;;5.61;100.00;99594.98;1656670;86;21636;-78
2021/03/19 09:53:20;;;;;;;18.17;6.27;;;;;;;5.57;100.00;99597.63;1650592;86;21052;-77
2021/03/19 09:55:54;;;;;;;19.50;7.30;;;;;;;5.55;100.00;99602.30;1662467;84;21174;-78
2021/03/19 09:58:48;;;;;;;15.23;7.23;;;;;;;5.65;100.00;99598.56;1832271;76;26841;-76
2021/03/19 10:01:30;;;;;;;15.90;6.80;;;;;;;5.62;100.00;99597.52;1855446;77;20984;-75
2021/03/19 10:04:03;;;;;;;15.08;6.65;;;;;;;5.67;100.00;99600.59;1787110;79;21265;-74
2021/03/19 10:06:37;;;;;;;15.67;7.17;;;;;;;5.79;100.00;99599.89;1782620;79;21586;-73
2021/03/19 10:09:17;;;;;;;18.45;7.75;;;;;;;5.86;100.00;99596.95;1783823;79;20993;-74
2021/03/19 10:12:14;;;;;;;17.50;7.73;;;;;;;5.93;100.00;99595.82;1784119;79;21065;-73
2021/03/19 10:14:49;;;;;;;12.87;6.07;;;;;;;5.97;100.00;99599.94;1791040;79;21590;-73
2021/03/19 10:17:33;;;;;;;15.53;5.73;;;;;;;5.96;100.00;99600.92;1794709;79;21197;-74
2021/03/19 10:20:33;;;;;;;15.80;6.60;;;;;;;6.09;100.00;99603.23;1809509;79;21104;-76
2021/03/19 10:23:16;;;;;;;15.67;5.53;;;;;;;6.26;100.00;99595.67;1809102;79;21077;-75
2021/03/19 10:25:45;;;;;;;15.87;5.73;;;;;;;6.42;100.00;99593.62;1803638;79;20954;-75
2021/03/19 10:28:23;;;;;;;16.77;6.10;;;;;;;6.57;100.00;99580.98;1796643;79;21029;-75
2021/03/19 10:31:12;;;;;;;12.83;5.70;;;;;;;6.72;100.00;99585.30;1764720;81;21373;-75
2021/03/19 10:33:44;;;;;;;11.90;5.10;;;;;;;6.91;100.00;99589.63;1769551;79;21136;-74
2021/03/19 10:36:17;;;;;;;12.70;4.75;;;;;;;7.03;100.00;99587.85;1776109;79;21638;-77
2021/03/19 10:38:59;;;;;;;16.50;5.62;;;;;;;7.06;100.00;99593.40;1786129;79;20945;-73
2021/03/19 10:41:52;;;;;;;17.57;6.50;;;;;;;6.98;100.00;99592.03;1821856;77;21561;-76
2021/03/19 10:44:30;;;;;;;;;;;;;;;6.82;100.00;99594.95;1830822;77;21184;-75
2021/03/19 10:47:11;;;;;;;15.97;5.87;;;;;;;6.80;100.00;99594.27;1823036;77;20160;-74
2021/03/19 10:49:48;;;;;;;12.70;5.70;;;;;;;6.84;100.00;99588.07;1689984;84;21052;-76
2021/03/19 10:52:41;;;;;;;8.50;4.30;;;;;;;7.04;100.00;99578.77;1711243;83;21352;-74
2021/03/19 10:55:22;;;;;;;9.23;4.43;;;;;;;7.26;100.00;99578.38;1838778;76;26933;-73
2021/03/19 10:57:55;;;;;;;14.63;5.17;;;;;;;7.26;100.00;99582.41;1799131;78;21035;-73
2021/03/19 11:00:40;;;;;;;16.03;5.40;;;;;;;7.21;100.00;99579.71;1801022;79;22142;-75
2021/03/19 11:03:37;;;;;;;11.03;4.77;;;;;;;7.08;100.00;99574.42;1778580;79;21085;-74
2021/03/19 11:06:08;;;;;;;9.80;4.23;;;;;;;6.97;100.00;99583.09;1771415;79;20982;-74
2021/03/19 11:08:37;;;;;;;10.47;5.07;;;;;;;6.95;100.00;99580.24;1756482;80;21093;-75
2021/03/19 11:11:05;;;;;;;11.00;4.83;;;;;;;6.90;100.00;99571.81;1762547;80;20962;-77
2021/03/19 11:13:36;;;;;;;9.27;4.27;;;;;;;6.92;100.00;99574.66;1760154;81;21203;-77
2021/03/19 11:16:36;;;;;;;13.57;4.47;;;;;;;7.01;100.00;99557.61;1844628;76;26719;-75
2021/03/19 11:19:15;;;;;;;6.37;4.33;;;;;;;7.02;100.00;99563.81;1810935;78;20996;-73
2021/03/19 11:21:45;;;;;;;9.63;4.33;;;;;;;6.92;100.00;99562.57;1794493;79;21394;-72
2021/03/19 11:24:26;;;;;;;11.07;4.27;;;;;;;6.95;100.00;99568.98;1800257;78;20976;-72
2021/03/19 11:27:05;;;;;;;10.13;4.33;;;;;;;6.98;100.00;99567.33;1732605;82;21075;-70
2021/03/19 11:29:35;;;;;;;7.20;3.90;;;;;;;6.89;100.00;99566.08;1747391;81;21075;-73
2021/03/19 11:32:14;;;;;;;11.83;4.27;;;;;;;6.88;100.00;99568.44;1762379;81;21033;-75
2021/03/19 11:34:46;;;;;;;9.73;4.40;;;;;;;6.82;100.00;99577.48;1757149;81;21209;-73
2021/03/19 11:37:24;;;;;;;10.93;4.63;;;;;;;6.76;100.00;99572.72;1764962;81;21025;-81
2021/03/19 11:40:03;;;;;;;13.10;5.10;;;;;;;6.77;100.00;99577.11;1739775;81;21020;-77
2021/03/19 11:42:44;;;;;;;14.87;5.43;;;;;;;6.74;100.00;99569.35;1759610;81;21017;-77
2021/03/19 11:45:20;;;;;;;15.03;5.03;;;;;;;6.69;100.00;99579.73;1758777;81;20958;-77
2021/03/19 11:48:16;;;;;;;9.80;4.03;;;;;;;6.62;100.00;99571.95;1670618;84;21394;-79
2021/03/19 11:50:52;;;;;;;8.97;4.30;;;;;;;6.54;100.00;99579.47;1708379;83;21025;-74
2021/03/19 11:53:26;;;;;;;7.53;3.30;;;;;;;6.65;100.00;99576.51;1710931;83;21127;-75
2021/03/19 11:55:56;;;;;;;8.17;3.23;;;;;;;6.92;100.00;99579.20;1685708;83;21041;-75
2021/03/19 11:58:28;;;;;;;13.67;4.17;;;;;;;7.12;100.00;99569.06;1700098;83;21684;-75
2021/03/19 12:00:56;;;;;;;11.77;3.97;;;;;;;7.14;100.00;99578.67;1641847;87;22333;-75
2021/03/19 12:03:33;;;;;;;11.90;4.90;;;;;;;7.07;100.00;99576.28;1686203;84;21266;-76
2021/03/19 12:06:03;;;;;;;9.73;4.17;;;;;;;7.15;100.00;99576.34;1672765;85;21154;-77
2021/03/19 12:08:33;;;;;;;8.30;3.90;;;;;;;7.45;100.00;99582.16;1668326;86;21108;-76
2021/03/19 12:11:03;;;;;;;8.63;3.83;;;;;;;7.80;100.00;99582.95;1715263;83;21057;-76
2021/03/19 12:13:32;;;;;;;9.67;3.63;;;;;;;8.02;100.00;99586.02;1715133;83;22124;-78
2021/03/19 12:16:00;;;;;;;10.90;4.50;;;;;;;8.03;100.00;99580.98;1729486;82;21151;-78
2021/03/19 12:18:29;;;;;;;9.77;3.70;;;;;;;8.06;100.00;99584.70;1730045;82;21025;-76
2021/03/19 12:20:58;;;;;;;7.67;3.67;;;;;;;8.13;100.00;99591.94;1724695;82;21131;-77
2021/03/19 12:23:27;;;;;;;10.70;4.03;;;;;;;8.08;100.00;99588.90;1727418;82;21066;-75